Badan Meteorologi, Klimatologi, dan Geofisika

CUACA TERKINI BANDARA KUALANAMU

Minggu, 22 September 2019 20:09 UTC

Cuaca : Berasap

Angin : (dari) Selatan, 3.7 km/jam

Jarak Pandang : 1.1 km

Suhu : 26 °C

Waktu Pengamatan : 03:00 WIB

Selengkapnya>>>

DATA METEOROLOGI KUALANAMU

Data Metar Terbaru

TAF WIMM 221700Z 2218/2318 VRB05KT 2000 FU SCT018 TEMPO 2223/2300 00000KT 0500 FG =

Selengkapnya>>>

Data TAF Terbaru

TAF WIMM 221700Z 2218/2318 VRB05KT 2000 FU SCT018 TEMPO 2223/2300 00000KT 0500 FG =

Selengkapnya>>>

CITRA SATELIT

Enhanced
Citra Satelit
Cloud Type
Citra Satelit IR
Hotspot
Citra Satelit
Sebaran Asap
Citra Satelit